Time;durP1;ratioP1;P1;durP2;ratioP2;P2;SDS_P1;SDS_P2;PMS_P1;PMS_P2;Temp;Humidity;BMP_temperature;BMP_pressure;BME280_temperature;BME280_humidity;BME280_pressure;Samples;Min_cycle;Max_cycle;Signal;HPM_P1;HPM_P2
2023/02/24 00:02:02;;;;;;;28.05;5.60;;;5.30;99.90;;;-144.05;81.97;57027.25;5040434;28;20029;-78
2023/02/24 00:04:38;;;;;;;33.95;6.43;;;5.20;99.90;;;-144.05;81.34;57065.47;5041136;28;20112;-78
2023/02/24 00:07:09;;;;;;;;;;;5.20;99.90;;;-144.05;80.96;57048.50;5041493;28;20055;-79
2023/02/24 00:09:37;;;;;;;29.00;6.05;;;5.20;99.90;;;-144.05;80.57;57029.38;5022484;28;19959;-81
2023/02/24 00:12:10;;;;;;;33.90;6.70;;;5.10;99.90;;;-144.05;81.13;57065.47;5022182;28;20064;-81
2023/02/24 00:14:41;;;;;;;32.25;6.50;;;5.10;99.90;;;-144.05;81.72;57020.88;5041300;28;20036;-80
2023/02/24 00:17:08;;;;;;;22.17;5.63;;;5.10;99.90;;;-144.05;81.90;57048.50;5022868;28;20090;-81
2023/02/24 00:19:37;;;;;;;32.22;7.05;;;5.10;99.90;;;-144.05;81.64;57031.50;5022812;28;20032;-80
2023/02/24 00:22:07;;;;;;;31.08;6.65;;;5.10;99.90;;;-144.05;81.37;57065.47;5040080;28;20071;-79
2023/02/24 00:24:35;;;;;;;23.75;5.50;;;5.10;99.90;;;-144.05;81.37;57048.50;5021440;28;20101;-79
2023/02/24 00:27:10;;;;;;;21.38;4.63;;;5.10;99.90;;;-144.05;81.62;57040.00;5040577;28;20652;-81
2023/02/24 00:29:38;;;;;;;30.42;6.00;;;5.00;99.90;;;-144.05;81.22;57052.75;5040125;28;20458;-80
2023/02/24 00:32:05;;;;;;;24.23;5.28;;;5.00;99.90;;;-144.05;81.34;57044.25;5039644;28;20034;-82
2023/02/24 00:34:36;;;;;;;19.63;4.47;;;5.00;99.90;;;-144.05;81.66;57042.13;5022658;28;20136;-78
2023/02/24 00:37:07;;;;;;;24.77;6.00;;;5.00;99.90;;;-144.05;82.01;57069.72;5039228;28;20416;-80
2023/02/24 00:39:35;;;;;;;23.52;5.82;;;5.00;99.90;;;-144.05;82.07;57046.38;5023594;28;20037;-82
2023/02/24 00:42:06;;;;;;;23.10;5.38;;;5.00;99.90;;;-144.05;81.50;57080.34;5021970;28;20029;-80
2023/02/24 00:44:44;;;;;;;32.70;5.72;;;5.00;99.90;;;-144.05;81.44;57042.13;5038351;28;20025;-79
2023/02/24 00:47:12;;;;;;;26.60;6.70;;;5.00;99.90;;;-144.05;81.37;57035.75;5040312;28;20029;-80
2023/02/24 00:49:43;;;;;;;25.15;4.63;;;4.90;99.90;;;-144.05;81.02;57018.75;5038710;28;20520;-80
2023/02/24 00:52:17;;;;;;;20.75;4.85;;;4.90;99.90;;;-144.05;80.79;57044.25;5036335;28;20030;-80
2023/02/24 00:54:47;;;;;;;27.73;4.78;;;4.90;99.90;;;-144.05;80.91;57056.97;5036487;28;20087;-81
2023/02/24 00:57:16;;;;;;;20.98;4.97;;;4.90;99.90;;;-144.05;80.77;57050.63;5035761;28;20022;-81
2023/02/24 00:59:46;;;;;;;26.13;4.93;;;4.80;99.90;;;-144.05;80.79;57052.75;5018339;28;20032;-81
2023/02/24 01:02:14;;;;;;;29.17;6.10;;;4.80;99.90;;;-144.05;80.77;57056.97;5018633;28;20041;-80
2023/02/24 01:04:40;;;;;;;34.78;6.35;;;4.80;99.90;;;-144.05;80.65;57046.38;5036507;28;20038;-79
2023/02/24 01:07:09;;;;;;;24.45;5.20;;;4.70;99.90;;;-144.05;80.84;57067.59;5036718;28;20025;-82
2023/02/24 01:09:40;;;;;;;24.00;4.90;;;4.70;99.90;;;-144.05;80.82;57065.47;5036154;28;20033;-81
2023/02/24 01:14:51;;;;;;;31.90;5.00;;;4.70;99.90;;;-144.05;81.47;57052.75;5036915;28;20029;-78
2023/02/24 01:17:20;;;;;;;18.40;4.32;;;4.70;99.90;;;-144.05;81.30;57078.22;5018398;28;20068;-79
2023/02/24 01:19:48;;;;;;;26.75;4.78;;;4.70;99.90;;;-144.05;81.41;57069.72;5036648;28;20032;-81
2023/02/24 01:22:17;;;;;;;22.85;4.90;;;4.70;99.90;;;-144.05;81.61;57061.22;5037062;28;20029;-81
2023/02/24 01:24:45;;;;;;;29.30;5.10;;;4.70;99.90;;;-144.05;81.81;57046.38;5036980;28;20088;-81
2023/02/24 01:27:17;;;;;;;30.45;4.20;;;4.70;99.90;;;-144.05;81.91;57031.50;5018237;28;20037;-80
2023/02/24 01:29:46;;;;;;;28.85;7.05;;;4.60;99.90;;;-144.05;81.74;57044.25;5036985;28;20049;-82
2023/02/24 01:32:20;;;;;;;22.05;5.25;;;4.70;99.90;;;-144.05;81.84;57054.88;5036772;28;20435;-80
2023/02/24 01:34:50;;;;;;;26.30;5.15;;;4.70;99.90;;;-144.05;81.79;57048.50;5019966;28;20048;-78
2023/02/24 01:37:18;;;;;;;20.08;4.38;;;4.60;99.90;;;-144.05;81.43;57044.25;5036164;28;20515;-80
2023/02/24 01:39:45;;;;;;;27.58;5.22;;;4.60;99.90;;;-144.05;81.75;57050.63;5037350;28;20035;-80
2023/02/24 01:42:18;;;;;;;23.73;4.45;;;4.60;99.90;;;-144.05;81.72;57059.09;5037902;28;20022;-82
2023/02/24 01:44:43;;;;;;;24.70;4.57;;;4.60;99.90;;;-144.05;82.09;57050.63;5038106;28;20061;-81
2023/02/24 01:47:11;;;;;;;24.15;5.28;;;4.70;99.90;;;-144.05;82.28;57076.09;5037118;28;20108;-80
2023/02/24 01:49:51;;;;;;;20.35;4.38;;;4.60;99.90;;;-144.05;82.42;57061.22;5019132;28;20029;-82
2023/02/24 01:52:29;;;;;;;22.55;5.30;;;4.60;99.90;;;-144.05;81.83;57023.00;5020087;28;20029;-81
2023/02/24 01:55:33;;;;;;;22.52;5.00;;;4.60;99.90;;;-144.05;81.88;57035.75;5045654;28;20041;-80
2023/02/24 01:58:10;;;;;;;36.03;6.10;;;4.60;99.90;;;-144.05;81.74;57054.88;5057092;28;20025;-77
2023/02/24 02:00:43;;;;;;;24.75;5.10;;;4.60;99.90;;;-144.05;81.78;57069.72;5040071;28;20069;-81
2023/02/24 02:03:25;;;;;;;24.80;6.97;;;4.60;99.90;;;-144.05;81.81;57063.34;5038242;28;20040;-81
2023/02/24 02:05:59;;;;;;;21.88;4.82;;;4.60;99.90;;;-144.05;82.12;57073.97;5051893;28;20044;-77
2023/02/24 02:08:27;;;;;;;23.08;5.05;;;4.60;99.90;;;-144.05;82.12;57035.75;5039540;28;20021;-79
2023/02/24 02:11:01;;;;;;;23.17;5.57;;;4.60;99.90;;;-144.05;82.04;57061.22;5056926;28;20099;-78
2023/02/24 02:13:30;;;;;;;32.85;6.95;;;4.60;99.90;;;-144.05;81.94;57046.38;5039788;28;20052;-76
2023/02/24 02:16:23;;;;;;;21.17;5.45;;;4.60;99.90;;;-144.05;81.71;57052.75;5057497;28;20032;-77
2023/02/24 02:19:15;;;;;;;22.70;5.55;;;4.60;99.90;;;-144.05;80.87;57063.34;5057096;28;20041;-77
2023/02/24 02:21:59;;;;;;;33.03;6.28;;;4.60;99.90;;;-144.05;80.99;57056.97;5056713;28;20018;-77
2023/02/24 02:24:59;;;;;;;27.67;6.20;;;4.50;99.90;;;-144.05;80.93;57071.84;5057281;28;20022;-78
2023/02/24 02:27:56;;;;;;;28.73;6.38;;;4.50;99.90;;;-144.05;80.85;57073.97;5053516;28;20036;-77
2023/02/24 02:31:03;;;;;;;25.45;6.60;;;4.40;99.90;;;-144.05;80.51;57035.75;5054530;28;20040;-79
2023/02/24 02:34:33;;;;;;;25.23;6.28;;;4.40;99.90;;;-144.05;80.57;57052.75;5057144;28;20130;-76
2023/02/24 02:38:24;;;;;;;33.10;6.45;;;4.30;99.90;;;-144.05;80.92;57065.47;5053681;28;20097;-76
2023/02/24 02:41:17;;;;;;;23.25;5.40;;;4.30;99.90;;;-144.05;81.17;57052.75;4978266;28;20042;-78
2023/02/24 02:44:31;;;;;;;24.15;6.22;;;4.10;99.90;;;-144.05;81.05;57059.09;4992051;28;20041;-84
2023/02/24 02:47:22;;;;;;;26.38;5.50;;;4.10;99.90;;;-144.05;81.47;57084.59;5056902;28;20022;-79
2023/02/24 02:50:00;;;;;;;22.10;5.15;;;4.10;99.90;;;-144.05;81.43;57052.75;5049790;28;20037;-77
2023/02/24 02:52:45;;;;;;;30.48;5.60;;;4.00;99.90;;;-144.05;81.69;57065.47;5037138;28;20156;-77
2023/02/24 02:55:40;;;;;;;19.00;4.97;;;4.00;99.90;;;-144.05;81.84;57080.34;5019688;28;20029;-80
2023/02/24 02:58:18;;;;;;;24.75;5.13;;;4.00;99.90;;;-144.05;82.14;57048.50;5018014;28;20045;-79
2023/02/24 03:01:02;;;;;;;27.38;5.82;;;3.90;99.90;;;-144.05;81.92;57073.97;5020168;28;20036;-78
2023/02/24 03:03:41;;;;;;;27.35;6.10;;;4.00;99.90;;;-144.05;81.87;57065.47;5019367;28;20032;-77
2023/02/24 03:06:23;;;;;;;27.13;7.20;;;4.00;99.90;;;-144.05;81.59;57069.72;5036799;28;20025;-79
2023/02/24 03:09:10;;;;;;;28.95;6.22;;;4.00;99.90;;;-144.05;81.77;57069.72;5017851;28;20025;-78
2023/02/24 03:11:43;;;;;;;33.47;5.75;;;3.90;99.90;;;-144.05;81.97;57073.97;5036065;28;20021;-76
2023/02/24 03:14:18;;;;;;;26.92;5.38;;;3.90;99.90;;;-144.05;81.97;57084.59;5036171;28;20519;-78
2023/02/24 03:16:49;;;;;;;27.77;7.70;;;3.90;99.90;;;-144.05;81.67;57082.47;5018428;28;20036;-78
2023/02/24 03:19:29;;;;;;;31.92;6.43;;;3.90;99.90;;;-144.05;81.52;57078.22;5035628;28;20025;-79
2023/02/24 03:22:11;;;;;;;21.58;4.90;;;3.90;99.90;;;-144.05;81.89;57065.47;5036401;28;20108;-80
2023/02/24 03:24:41;;;;;;;21.38;4.57;;;3.90;99.90;;;-144.05;81.15;57052.75;5018446;28;20358;-78
2023/02/24 03:27:30;;;;;;;23.73;4.40;;;3.90;99.90;;;-144.05;81.22;57082.47;5036305;28;20408;-79
2023/02/24 03:30:20;;;;;;;23.42;5.15;;;3.90;99.90;;;-144.05;81.21;57076.09;5035995;28;20095;-78
2023/02/24 03:33:20;;;;;;;25.70;5.25;;;3.80;99.90;;;-144.05;81.41;57065.47;5018385;28;20124;-79
2023/02/24 03:35:50;;;;;;;23.33;5.68;;;3.70;99.90;;;-144.05;81.63;57073.97;5013613;28;20029;-78
2023/02/24 03:38:18;;;;;;;28.20;6.25;;;3.70;99.90;;;-144.05;81.61;57052.75;5017406;28;20383;-79
2023/02/24 03:40:44;;;;;;;30.10;5.53;;;3.70;99.90;;;-144.05;81.84;57069.72;5036345;28;20087;-78
2023/02/24 03:43:36;;;;;;;31.58;5.72;;;3.70;99.90;;;-144.05;81.57;57069.72;5036200;28;20033;-78
2023/02/24 03:46:04;;;;;;;20.10;4.75;;;3.60;99.90;;;-144.05;81.74;57052.75;5035877;28;20032;-79
2023/02/24 03:48:39;;;;;;;22.60;5.40;;;3.70;99.90;;;-144.05;81.81;57054.88;5035387;28;20030;-81
2023/02/24 03:51:05;;;;;;;16.63;5.13;;;3.70;99.90;;;-144.05;81.84;57069.72;5017937;28;20087;-81
2023/02/24 03:54:07;;;;;;;23.85;5.00;;;3.60;99.90;;;-144.05;82.09;57069.72;5036189;28;20276;-79
2023/02/24 03:57:30;;;;;;;23.65;5.03;;;3.50;99.90;;;-144.05;82.32;57048.50;5036268;28;20112;-79
2023/02/24 04:00:33;;;;;;;18.38;5.20;;;3.50;99.90;;;-144.05;82.19;57082.47;5013453;28;20099;-79
2023/02/24 04:03:33;;;;;;;22.80;4.88;;;3.50;99.90;;;-144.05;82.52;57052.75;5035804;28;20496;-79
2023/02/24 04:06:50;;;;;;;30.40;5.45;;;3.50;99.90;;;-144.05;82.76;57056.97;5035917;28;20112;-80
2023/02/24 04:09:49;;;;;;;20.75;5.47;;;3.50;99.90;;;-144.05;82.67;57082.47;5017356;28;20516;-77
2023/02/24 04:12:45;;;;;;;23.83;6.25;;;3.50;99.90;;;-144.05;82.84;57097.34;5017961;28;20396;-80
2023/02/24 04:15:37;;;;;;;24.98;5.20;;;3.50;99.90;;;-144.05;82.60;57084.59;5036030;28;20491;-79
2023/02/24 04:18:16;;;;;;;21.27;4.90;;;3.50;99.90;;;-144.05;82.88;57063.34;5035197;28;20029;-79
2023/02/24 04:20:49;;;;;;;24.42;3.92;;;3.50;99.90;;;-144.05;82.65;57059.09;5017487;28;20033;-79
2023/02/24 04:23:25;;;;;;;28.35;4.72;;;3.50;99.90;;;-144.05;82.91;57080.34;5037887;28;20025;-83
2023/02/24 04:25:55;;;;;;;;;;;3.50;99.90;;;-144.05;82.79;57080.34;5020879;28;20036;-80
2023/02/24 04:28:26;;;;;;;15.38;3.53;;;3.50;99.90;;;-144.05;82.76;57082.47;5040062;28;20006;-81
2023/02/24 04:31:04;;;;;;;23.55;4.32;;;3.40;99.90;;;-144.05;82.56;57082.47;5021492;28;20025;-79
2023/02/24 04:33:32;;;;;;;20.55;4.25;;;3.40;99.90;;;-144.05;82.36;57061.22;5023882;28;20025;-80
2023/02/24 04:35:58;;;;;;;17.60;4.20;;;3.40;99.90;;;-144.05;82.33;57093.09;5041979;28;20057;-80
2023/02/24 04:38:24;;;;;;;28.10;5.07;;;3.40;99.90;;;-144.05;82.30;57080.34;5041340;28;20060;-81
2023/02/24 04:40:50;;;;;;;29.42;5.80;;;3.40;99.90;;;-144.05;82.41;57065.47;5039559;28;20033;-79
2023/02/24 04:43:17;;;;;;;15.95;4.35;;;3.40;99.90;;;-144.05;82.23;57093.09;5039277;28;20536;-80
2023/02/24 04:45:43;;;;;;;15.68;4.00;;;3.40;99.90;;;-144.05;82.13;57069.72;5040630;28;20029;-82
2023/02/24 04:48:13;;;;;;;19.50;4.47;;;3.40;99.90;;;-144.05;81.90;57065.47;5039937;28;20159;-80
2023/02/24 04:50:42;;;;;;;16.40;4.82;;;3.30;99.90;;;-144.05;81.92;57086.72;5019603;28;20037;-79
2023/02/24 04:53:15;;;;;;;15.10;3.90;;;3.30;99.90;;;-144.05;81.66;57080.34;5038808;28;20032;-79
2023/02/24 04:55:47;;;;;;;18.80;3.60;;;3.30;99.90;;;-144.05;81.43;57067.59;5038559;28;20030;-80
2023/02/24 04:58:19;;;;;;;19.60;3.83;;;3.30;99.90;;;-144.05;81.63;57065.47;5020833;28;20087;-80
2023/02/24 05:00:51;;;;;;;21.35;4.13;;;3.30;99.90;;;-144.05;81.72;57059.09;5039263;28;20378;-82
2023/02/24 05:03:20;;;;;;;24.25;4.40;;;3.40;99.90;;;-144.05;81.34;57046.38;5039236;28;20097;-79
2023/02/24 05:05:58;;;;;;;28.25;4.28;;;3.30;99.90;;;-144.05;81.29;57088.84;5021694;28;20057;-80
2023/02/24 05:08:28;;;;;;;24.25;4.20;;;3.40;99.90;;;-144.05;81.31;57073.97;5039919;28;20045;-81
2023/02/24 05:10:57;;;;;;;18.30;4.72;;;3.40;99.90;;;-144.05;81.02;57065.47;5038691;28;20071;-80
2023/02/24 05:13:30;;;;;;;17.38;3.53;;;3.40;99.90;;;-144.05;80.88;57052.75;5021170;28;20037;-78
2023/02/24 05:16:07;;;;;;;19.98;4.38;;;3.40;99.90;;;-144.05;80.92;57071.84;5037273;28;20025;-79
2023/02/24 05:18:35;;;;;;;18.98;4.18;;;3.40;99.90;;;-144.05;80.94;57065.47;5036039;28;20457;-77
2023/02/24 05:24:05;;;;;;;18.58;4.10;;;3.40;99.90;;;-144.05;80.74;57071.84;5037409;28;20492;-80
2023/02/24 05:26:34;;;;;;;19.02;3.67;;;3.40;99.90;;;-144.05;80.44;57056.97;5037758;28;20083;-80
2023/02/24 05:29:03;;;;;;;15.40;3.67;;;3.40;99.90;;;-144.05;80.21;57063.34;5037519;28;20113;-78
2023/02/24 05:31:30;;;;;;;18.92;3.75;;;3.40;99.90;;;-144.05;79.58;57069.72;5018133;28;20025;-82
2023/02/24 05:34:04;;;;;;;24.63;3.65;;;3.40;99.90;;;-144.05;79.23;57078.22;5036314;28;20052;-79
2023/02/24 05:36:39;;;;;;;20.83;3.95;;;3.40;99.90;;;-144.05;78.95;57069.72;5037110;28;20029;-81
2023/02/24 05:39:11;;;;;;;32.43;4.80;;;3.40;99.90;;;-144.05;78.33;57040.00;5036465;28;20118;-81
2023/02/24 05:41:42;;;;;;;17.95;4.32;;;3.40;99.90;;;-144.05;78.10;57082.47;5035927;28;20029;-82
2023/02/24 05:44:14;;;;;;;19.55;4.18;;;3.40;99.90;;;-144.05;77.88;57080.34;5018575;28;20463;-80
2023/02/24 05:46:45;;;;;;;15.93;2.92;;;3.50;99.90;;;-144.05;77.46;57052.75;5034942;28;20030;-81
2023/02/24 05:49:21;;;;;;;14.07;2.85;;;3.50;99.90;;;-144.05;76.77;57073.97;5036693;28;20029;-82
2023/02/24 05:51:53;;;;;;;19.45;3.65;;;3.50;99.90;;;-144.05;76.70;57071.84;5035414;28;20033;-81
2023/02/24 05:54:28;;;;;;;14.68;3.28;;;3.50;99.90;;;-144.05;76.69;57078.22;5035449;28;20041;-79
2023/02/24 05:56:59;;;;;;;21.47;4.37;;;3.50;99.90;;;-144.05;76.53;57056.97;5035530;28;20025;-82
2023/02/24 05:59:31;;;;;;;14.52;3.20;;;3.50;99.90;;;-144.05;76.41;57069.72;5036353;28;20343;-81
2023/02/24 06:02:07;;;;;;;18.27;3.58;;;3.50;99.90;;;-144.05;76.34;57067.59;5035119;28;20112;-80
2023/02/24 06:04:44;;;;;;;19.75;3.83;;;3.50;99.90;;;-144.05;76.39;57071.84;5034892;28;20033;-82
2023/02/24 06:07:19;;;;;;;13.80;4.28;;;3.50;99.90;;;-144.05;76.63;57063.34;5035966;28;20052;-79
2023/02/24 06:09:56;;;;;;;14.13;3.38;;;3.50;99.90;;;-144.05;76.81;57090.97;5039909;28;20056;-79
2023/02/24 06:12:38;;;;;;;13.65;4.10;;;3.50;99.90;;;-144.05;76.47;57073.97;5035464;28;20033;-78
2023/02/24 06:15:06;;;;;;;14.93;3.80;;;3.50;99.90;;;-144.05;77.16;57042.13;5039072;28;20564;-80
2023/02/24 06:17:32;;;;;;;12.88;3.55;;;3.50;99.90;;;-144.05;76.92;57054.88;5021914;28;20534;-80
2023/02/24 06:19:58;;;;;;;10.25;3.42;;;3.50;99.90;;;-144.05;76.77;57073.97;5020901;28;20025;-82
2023/02/24 06:22:25;;;;;;;19.35;3.92;;;3.50;99.90;;;-144.05;76.83;57086.72;5019348;28;20037;-81
2023/02/24 06:24:55;;;;;;;18.75;4.75;;;3.60;99.90;;;-144.05;76.88;57061.22;5036874;28;20036;-81
2023/02/24 06:27:23;;;;;;;14.63;3.47;;;3.50;99.90;;;-144.05;76.51;57086.72;5038014;28;20064;-79
2023/02/24 06:29:52;;;;;;;14.20;3.80;;;3.50;99.90;;;-144.05;76.62;57065.47;5037177;28;20122;-80
2023/02/24 06:32:23;;;;;;;18.65;5.00;;;3.60;99.90;;;-144.05;76.61;57056.97;5034855;28;20026;-79
2023/02/24 06:34:51;;;;;;;17.55;3.13;;;3.50;99.90;;;-144.05;76.42;57093.09;5035572;28;20648;-80
2023/02/24 06:37:17;;;;;;;20.48;4.05;;;3.50;99.90;;;-144.05;76.32;57063.34;5034357;28;20120;-81
2023/02/24 06:39:43;;;;;;;10.45;4.75;;;3.60;99.90;;;-144.05;75.83;57063.34;5015275;28;20025;-80
2023/02/24 06:42:11;;;;;;;16.73;4.50;;;3.50;99.90;;;-144.05;75.33;57080.34;5016942;28;20117;-78
2023/02/24 06:44:40;;;;;;;17.67;4.47;;;3.50;99.90;;;-144.05;75.30;57044.25;5017234;28;20477;-81
2023/02/24 06:47:12;;;;;;;11.60;3.72;;;3.50;99.90;;;-144.05;74.95;57082.47;5017381;28;20033;-80
2023/02/24 06:49:37;;;;;;;11.10;4.30;;;3.50;99.90;;;-144.05;74.75;57065.47;5015109;28;20461;-76
2023/02/24 06:52:04;;;;;;;15.45;4.45;;;3.60;99.90;;;-144.05;74.02;57090.97;5033016;28;20029;-77
2023/02/24 06:54:34;;;;;;;16.67;3.95;;;3.50;99.90;;;-144.05;73.33;57052.75;5033909;28;20497;-80
2023/02/24 06:57:04;;;;;;;20.70;6.05;;;3.60;99.90;;;-144.05;73.29;57078.22;5033149;28;20045;-79
2023/02/24 06:59:30;;;;;;;16.30;3.90;;;3.60;99.90;;;-144.05;72.43;57090.97;5033954;28;20025;-76
2023/02/24 07:02:02;;;;;;;12.35;4.60;;;3.60;99.90;;;-144.05;72.33;57073.97;5034863;28;20030;-78
2023/02/24 07:04:28;;;;;;;12.45;3.67;;;3.60;99.90;;;-144.05;71.78;57078.22;5033986;28;20036;-78
2023/02/24 07:07:01;;;;;;;16.05;3.88;;;3.60;99.90;;;-144.05;71.58;57076.09;5032961;28;20068;-79
2023/02/24 07:09:29;;;;;;;13.23;3.85;;;3.70;99.90;;;-144.05;70.29;57084.59;5032921;28;20056;-78
2023/02/24 07:11:55;;;;;;;16.50;3.30;;;3.70;99.90;;;-144.05;70.73;57093.09;5032909;28;20039;-77
2023/02/24 07:14:30;;;;;;;20.38;5.97;;;3.70;99.90;;;-144.05;70.96;57069.72;5033189;28;20068;-78
2023/02/24 07:16:58;;;;;;;19.73;3.80;;;3.70;99.90;;;-144.05;71.01;57073.97;5014751;28;20030;-80
2023/02/24 07:19:31;;;;;;;12.75;4.10;;;3.70;99.90;;;-144.05;70.56;57065.47;5032368;28;20680;-79
2023/02/24 07:22:02;;;;;;;18.42;3.45;;;3.70;99.90;;;-144.05;70.56;57069.72;5033816;28;20444;-77
2023/02/24 07:24:35;;;;;;;17.80;4.35;;;3.70;99.90;;;-144.05;70.48;57065.47;5015937;28;20099;-79
2023/02/24 07:27:08;;;;;;;19.98;3.70;;;3.80;99.90;;;-144.05;70.49;57086.72;5033463;28;20033;-78
2023/02/24 07:29:36;;;;;;;18.63;3.70;;;3.80;99.90;;;-144.05;70.40;57056.97;5032499;28;20029;-77
2023/02/24 07:32:07;;;;;;;13.70;3.85;;;3.80;99.90;;;-144.05;70.20;57071.84;5033536;28;20089;-78
2023/02/24 07:34:33;;;;;;;16.70;3.83;;;3.80;99.90;;;-144.05;70.36;57076.09;5035779;28;20037;-77
2023/02/24 07:37:06;;;;;;;19.42;3.83;;;3.80;99.90;;;-144.05;70.27;57046.38;5037779;28;20025;-80
2023/02/24 07:39:38;;;;;;;17.98;3.65;;;3.80;99.90;;;-144.05;70.17;57069.72;5037425;28;20038;-77
2023/02/24 07:42:07;;;;;;;13.95;2.92;;;3.80;99.90;;;-144.05;70.10;57056.97;5037188;28;20032;-80
2023/02/24 07:44:33;;;;;;;11.40;3.35;;;3.90;99.90;;;-144.05;70.09;57031.50;5038329;28;20057;-77
2023/02/24 07:46:59;;;;;;;18.60;4.05;;;3.90;99.90;;;-144.05;69.82;57071.84;5019721;28;20056;-79
2023/02/24 07:49:28;;;;;;;16.73;3.42;;;3.90;99.90;;;-144.05;69.35;57099.47;5036899;28;20025;-78
2023/02/24 07:51:56;;;;;;;17.00;3.55;;;4.00;99.90;;;-144.05;69.20;57023.00;5019000;28;20030;-79
2023/02/24 07:54:28;;;;;;;14.50;3.00;;;4.00;99.90;;;-144.05;69.39;57073.97;5019440;28;20034;-77
2023/02/24 07:56:57;;;;;;;15.55;3.08;;;3.90;99.90;;;-144.05;69.36;57067.59;5037693;28;20477;-78
2023/02/24 07:59:31;;;;;;;13.50;3.70;;;4.00;99.90;;;-144.05;69.08;57080.34;5036727;28;20045;-78
2023/02/24 08:01:59;;;;;;;18.40;3.83;;;4.00;99.90;;;-144.05;69.65;57073.97;5036573;28;20040;-79
2023/02/24 08:04:31;;;;;;;21.83;3.78;;;4.00;99.90;;;-144.05;70.07;57076.09;5037678;28;20033;-78
2023/02/24 08:07:01;;;;;;;15.10;3.28;;;4.10;99.90;;;-144.05;69.54;57050.63;5036723;28;20033;-79
2023/02/24 08:12:21;;;;;;;12.35;3.67;;;4.10;99.90;;;-144.05;69.70;57052.75;5039132;28;20033;-79
2023/02/24 08:14:51;;;;;;;21.15;4.38;;;4.20;99.90;;;-144.05;69.88;57063.34;5019814;28;20037;-79
2023/02/24 08:17:22;;;;;;;15.60;4.05;;;4.10;99.90;;;-144.05;70.37;57076.09;5019010;28;20465;-81
2023/02/24 08:22:45;;;;;;;15.23;3.92;;;4.10;99.90;;;-144.05;70.78;57020.88;5036488;28;20036;-79
2023/02/24 08:25:17;;;;;;;17.83;4.55;;;4.10;99.90;;;-144.05;70.45;57050.63;5037443;28;20049;-80
2023/02/24 08:27:55;;;;;;;18.30;3.60;;;4.10;99.90;;;-144.05;69.97;57061.22;5037215;28;20055;-78
2023/02/24 08:30:28;;;;;;;17.35;3.45;;;4.10;99.90;;;-144.05;69.13;57050.63;5035971;28;20429;-78
2023/02/24 08:32:56;;;;;;;13.88;3.13;;;4.10;99.90;;;-144.05;68.79;57082.47;5018458;28;20033;-78
2023/02/24 08:35:31;;;;;;;13.40;3.17;;;4.10;99.90;;;-144.05;68.21;57042.13;5035894;28;20053;-78
2023/02/24 08:38:16;;;;;;;12.43;3.10;;;4.20;99.90;;;-144.05;67.61;57065.47;5035737;28;20151;-77
2023/02/24 08:40:51;;;;;;;16.98;3.97;;;4.20;99.90;;;-144.05;67.46;57063.34;5038931;22;20085;-77
2023/02/24 08:43:34;;;;;;;11.77;3.97;;;4.20;99.90;;;-144.05;66.61;57069.72;4997187;28;20049;-76
2023/02/24 08:46:24;;;;;;;14.13;3.63;;;4.30;99.90;;;-144.05;67.00;57054.88;5013745;28;20061;-77
2023/02/24 08:48:56;;;;;;;11.25;2.58;;;4.30;99.90;;;-144.05;68.10;57056.97;4994241;28;20029;-78
2023/02/24 08:51:34;;;;;;;15.48;3.75;;;4.30;99.90;;;-144.05;66.61;57063.34;4995495;28;20431;-77
2023/02/24 08:54:14;;;;;;;9.48;2.42;;;4.20;99.90;;;-144.05;66.20;57067.59;4978318;28;20430;-76
2023/02/24 08:56:48;;;;;;;13.35;3.30;;;4.20;99.90;;;-144.05;65.64;57063.34;4995431;28;20490;-76
2023/02/24 09:05:03;;;;;;;14.70;3.20;;;4.30;99.90;;;-144.05;64.40;57065.47;4996138;28;20108;-75
2023/02/24 09:07:41;;;;;;;16.77;4.40;;;4.30;99.90;;;-144.05;66.19;57050.63;4995368;28;20026;-76
2023/02/24 09:10:17;;;;;;;8.57;2.90;;;4.40;99.90;;;-144.05;65.03;57069.72;4996229;28;20367;-76
2023/02/24 09:12:44;;;;;;;16.17;3.25;;;4.40;99.90;;;-144.05;64.61;57071.84;4979859;28;20038;-77
2023/02/24 09:15:15;;;;;;;12.45;2.25;;;4.40;99.90;;;-144.05;64.26;57067.59;4994814;28;20030;-75
2023/02/24 09:23:18;;;;;;;14.70;2.50;;;4.50;99.90;;;-144.05;64.92;57050.63;4993309;28;20046;-75
2023/02/24 09:25:49;;;;;;;15.38;2.53;;;4.60;99.90;;;-144.05;64.46;57078.22;4994937;28;20375;-77
2023/02/24 09:28:26;;;;;;;12.05;2.90;;;4.60;99.90;;;-144.05;64.81;57061.22;4994291;28;20065;-75
2023/02/24 09:31:03;;;;;;;9.15;2.50;;;4.60;99.90;;;-144.05;65.34;57050.63;4993918;28;20108;-75
2023/02/24 09:33:40;;;;;;;11.18;3.10;;;4.60;99.90;;;-144.05;66.11;57040.00;4976561;28;20096;-76
2023/02/24 09:36:09;;;;;;;18.73;3.58;;;4.50;99.90;;;-144.05;66.61;57067.59;4993619;28;20061;-76
2023/02/24 09:41:52;;;;;;;19.13;4.97;;;4.50;99.90;;;-144.05;67.77;57063.34;4993720;28;20082;-76
2023/02/24 09:44:51;;;;;;;15.40;4.13;;;4.50;99.90;;;-144.05;67.51;57061.22;4976230;28;20037;-76
2023/02/24 09:47:38;;;;;;;18.67;5.57;;;4.50;99.90;;;-144.05;67.63;57056.97;4992948;28;20049;-76
2023/02/24 09:50:16;;;;;;;16.30;4.35;;;4.50;99.90;;;-144.05;67.36;57050.63;4991671;28;20030;-78
2023/02/24 09:52:43;;;;;;;14.93;3.58;;;4.50;99.90;;;-144.05;67.47;57067.59;4999489;28;20038;-77
2023/02/24 09:55:44;;;;;;;13.80;4.03;;;4.50;99.90;;;-144.05;67.27;57052.75;5000142;28;20098;-77
2023/02/24 09:58:30;;;;;;;14.35;3.53;;;4.50;99.90;;;-144.05;67.27;57054.88;4999191;28;20094;-76
2023/02/24 10:01:51;;;;;;;18.20;3.78;;;4.60;99.90;;;-144.05;66.95;57035.75;4998378;28;20036;-76
2023/02/24 10:04:47;;;;;;;12.98;3.88;;;4.60;99.90;;;-144.05;66.78;57065.47;4998577;28;20088;-75
2023/02/24 10:07:40;;;;;;;14.73;3.85;;;4.60;99.90;;;-144.05;67.20;57078.22;5002621;28;20030;-75
2023/02/24 10:10:34;;;;;;;14.90;3.92;;;4.70;99.90;;;-144.05;66.86;57071.84;4994590;28;20038;-77
2023/02/24 10:13:29;;;;;;;16.95;3.58;;;4.70;99.90;;;-144.05;67.04;57035.75;4995933;28;20369;-76
2023/02/24 10:16:04;;;;;;;11.57;2.72;;;4.70;99.90;;;-144.05;67.79;57093.09;4995645;28;20038;-75
2023/02/24 10:19:13;;;;;;;19.67;3.92;;;4.60;99.90;;;-144.05;67.73;57054.88;4995368;28;20030;-74
2023/02/24 10:21:59;;;;;;;13.80;3.88;;;4.50;99.90;;;-144.05;68.21;57069.72;4996154;28;20038;-77
2023/02/24 10:24:40;;;;;;;15.35;4.15;;;4.50;99.90;;;-144.05;68.24;57056.97;4996782;28;20098;-77
2023/02/24 10:27:31;;;;;;;10.68;4.05;;;4.50;99.90;;;-144.05;68.24;57084.59;4994974;28;20058;-76
2023/02/24 10:30:39;;;;;;;15.18;4.18;;;4.40;99.90;;;-144.05;69.39;57059.09;4993925;28;20030;-77
2023/02/24 10:33:19;;;;;;;11.02;3.53;;;4.40;99.90;;;-144.05;69.00;57084.59;4994600;28;20282;-75
2023/02/24 10:35:46;;;;;;;20.17;4.28;;;4.40;99.90;;;-144.05;69.83;57044.25;4994417;28;20056;-76
2023/02/24 10:38:13;;;;;;;16.75;3.53;;;4.40;99.90;;;-144.05;69.17;57065.47;4993976;28;20038;-76
2023/02/24 10:40:56;;;;;;;15.50;3.28;;;4.40;99.90;;;-144.05;70.12;57073.97;4994566;28;20045;-76
2023/02/24 10:43:30;;;;;;;16.80;3.80;;;4.30;99.90;;;-144.05;70.94;57065.47;4994844;28;20033;-73
2023/02/24 10:46:15;;;;;;;13.05;3.53;;;4.30;99.90;;;-144.05;71.85;57088.84;4995121;28;20026;-76
2023/02/24 10:49:00;;;;;;;16.20;3.85;;;4.30;99.90;;;-144.05;72.07;57078.22;4976561;28;20030;-77
2023/02/24 10:51:46;;;;;;;14.95;3.67;;;4.30;99.90;;;-144.05;72.26;57071.84;4975747;28;20038;-77
2023/02/24 10:54:43;;;;;;;18.75;3.50;;;4.20;99.90;;;-144.05;72.49;57050.63;4993226;28;20026;-75
2023/02/24 10:57:35;;;;;;;14.40;3.45;;;4.20;99.90;;;-144.05;72.10;57076.09;4991675;28;20026;-77
2023/02/24 11:00:19;;;;;;;12.85;3.75;;;4.10;99.90;;;-144.05;73.07;57069.72;4990823;28;20098;-75
2023/02/24 11:03:07;;;;;;;24.30;5.13;;;4.20;99.90;;;-144.05;73.40;57061.22;4993502;28;20044;-76
2023/02/24 11:08:38;;;;;;;19.35;4.28;;;4.20;99.90;;;-144.05;73.54;57090.97;4993508;28;20030;-76
2023/02/24 11:11:29;;;;;;;13.15;3.90;;;4.20;99.90;;;-144.05;73.84;57061.22;4997092;28;20045;-78
2023/02/24 11:19:59;;;;;;;18.27;4.30;;;4.10;99.90;;;-144.05;75.19;57056.97;4997501;28;20077;-76
2023/02/24 11:22:40;;;;;;;17.48;4.63;;;4.10;99.90;;;-144.05;75.68;57048.50;4985341;28;20056;-77